createdAt,value
2023-04-16T08:45:09.688Z,60.70
2023-04-16T12:03:05.063Z,50.70
2023-04-16T12:09:49.989Z,52.10
2023-04-16T12:41:20.882Z,44.80
2023-04-16T12:55:21.132Z,44.90
2023-04-16T12:55:23.082Z,53.40
2023-04-16T12:56:22.953Z,55.30
2023-04-16T12:57:22.903Z,47.10
2023-04-16T12:58:23.131Z,46.40
2023-04-16T12:59:22.850Z,46.80
2023-04-16T13:00:22.822Z,49.80
2023-04-16T13:01:23.360Z,43.80
2023-04-16T13:02:23.148Z,47.90
2023-04-16T13:03:22.858Z,50.60
2023-04-16T13:04:25.505Z,50.60
2023-04-16T13:05:23.682Z,48.60
2023-04-16T13:06:23.034Z,48.30
2023-04-16T13:07:22.698Z,48.40
2023-04-16T13:08:22.763Z,49.70
2023-04-16T13:09:22.802Z,50.80
2023-04-16T13:10:22.818Z,51.60
2023-04-16T13:11:22.760Z,50.80
2023-04-16T13:12:22.724Z,50.50
2023-04-16T13:13:22.710Z,50.80
2023-04-16T13:15:46.743Z,46.20
2023-04-16T13:15:48.709Z,46.80
2023-04-16T13:16:51.730Z,48.50
2023-04-16T13:17:50.694Z,48.80
2023-04-16T13:18:53.306Z,49.30
2023-04-16T13:19:48.578Z,49.40
2023-04-16T13:20:51.610Z,46.90
2023-04-16T13:21:56.123Z,47.90
2023-04-16T13:22:54.464Z,52.50
2023-04-16T13:23:53.692Z,51.50
2023-04-16T13:24:54.210Z,48.20
2023-04-16T13:25:50.734Z,48.50
2023-04-16T13:26:58.618Z,45.50
2023-04-16T13:28:09.479Z,47.00
2023-04-16T13:28:52.670Z,48.30
2023-04-16T13:29:55.360Z,49.10
2023-04-16T13:30:52.747Z,48.00
2023-04-16T13:33:12.772Z,49.10
2023-04-16T13:33:19.602Z,47.70
2023-04-16T13:37:11.974Z,46.60
2023-04-16T13:38:11.591Z,45.50
2023-04-16T13:39:08.908Z,49.80
2023-04-16T13:41:29.446Z,47.00
2023-04-16T13:41:43.970Z,50.70
2023-04-16T13:42:37.919Z,46.80
2023-04-16T13:43:45.399Z,52.40
2023-04-16T13:45:14.404Z,48.30
2023-04-16T13:45:33.861Z,45.90
2023-04-16T13:49:19.724Z,47.30
2023-04-16T13:50:16.041Z,46.10
2023-04-16T13:51:47.906Z,46.20
2023-04-16T13:58:23.855Z,49.30
2023-04-16T13:59:52.236Z,49.60
2023-04-16T14:01:16.140Z,47.60
2023-04-16T14:04:16.450Z,52.40
2023-04-16T14:04:27.847Z,55.50
2023-04-16T14:06:41.864Z,52.10
2023-04-16T14:06:44.486Z,48.30
2023-04-16T14:07:56.637Z,46.10
2023-04-16T14:08:55.477Z,53.40
2023-04-16T14:10:06.386Z,46.80
2023-04-16T14:26:15.325Z,49.70
2023-04-16T14:26:49.546Z,54.10
2023-04-16T14:27:49.483Z,46.90
2023-04-16T14:28:49.476Z,49.10
2023-04-16T14:29:49.502Z,52.40
2023-04-16T14:30:49.521Z,51.10
2023-04-16T14:31:49.567Z,49.50
2023-04-16T14:32:50.277Z,51.00
2023-04-16T14:33:49.410Z,47.60
2023-04-16T14:34:49.415Z,47.90
2023-04-16T14:35:49.440Z,51.50
2023-04-16T14:36:49.457Z,50.90
2023-04-16T14:37:49.401Z,51.30
2023-04-16T14:38:49.395Z,51.60
2023-04-16T14:39:49.438Z,55.80
2023-04-16T14:40:49.376Z,56.00
2023-04-16T14:41:49.387Z,57.10
2023-04-16T14:42:49.368Z,58.60
2023-04-16T14:43:49.350Z,55.40
2023-04-16T14:44:49.397Z,52.80
2023-04-16T14:45:49.292Z,55.20
2023-04-16T14:46:49.314Z,52.10
2023-04-16T14:47:49.822Z,57.60
2023-04-16T14:48:49.304Z,51.70
2023-04-16T14:49:49.193Z,55.50
2023-04-16T14:50:49.267Z,53.70
2023-04-16T14:51:49.210Z,55.40
2023-04-16T14:52:49.283Z,55.40
2023-04-16T14:53:49.228Z,53.00
2023-04-16T14:54:49.308Z,60.20
2023-04-16T14:55:49.224Z,61.60
2023-04-16T14:56:49.413Z,56.10
2023-04-16T14:57:49.174Z,60.30
2023-04-16T14:58:49.176Z,55.50
2023-04-16T14:59:49.159Z,58.20
2023-04-16T15:00:49.146Z,55.30
2023-04-16T15:01:49.265Z,57.30
2023-04-16T15:02:49.224Z,61.20
2023-04-16T15:03:49.697Z,54.70
2023-04-16T15:04:49.091Z,58.20
2023-04-16T15:05:49.082Z,55.40
2023-04-16T15:06:49.858Z,51.10
2023-04-16T15:07:49.130Z,48.40
2023-04-16T15:08:49.126Z,45.80
2023-04-16T15:09:49.065Z,46.20
2023-04-16T15:10:49.072Z,44.60
2023-04-16T15:11:49.037Z,46.30
2023-04-16T15:12:49.029Z,42.50
2023-04-16T15:13:49.062Z,42.50
2023-04-16T15:14:49.039Z,44.30
2023-04-16T15:15:49.050Z,47.90
2023-04-16T15:16:49.070Z,43.70
2023-04-16T15:17:48.992Z,45.30
2023-04-16T15:18:49.877Z,43.80
2023-04-16T15:19:48.970Z,43.10
2023-04-16T15:20:48.879Z,48.60
2023-04-16T15:21:49.440Z,46.50
2023-04-16T15:22:49.773Z,47.40
2023-04-16T15:29:41.279Z,48.10
2023-04-16T15:45:29.603Z,44.00
